Aviation Digital Data Service (ADDS)

Output produced by METARs form (0146 UTC 18 October 2017)
found at http://aviationweather.gov/adds/metars/
 
KARA 172325Z 1800/1824 04005KT P6SM SKC